Time;durP1;ratioP1;P1;durP2;ratioP2;P2;SDS_P1;SDS_P2;PMS_P1;PMS_P2;Temp;Humidity;BMP_temperature;BMP_pressure;BME280_temperature;BME280_humidity;BME280_pressure;Samples;Min_cycle;Max_cycle;Signal;HPM_P1;HPM_P2
2022/05/15 00:02:10;;;;;;;5.50;2.83;;;;;;;11.78;93.76;96135.59;5033246;28;24447;-74
2022/05/15 00:04:37;;;;;;;4.90;2.72;;;;;;;11.57;95.24;96139.53;5032991;28;24435;-74
2022/05/15 00:07:04;;;;;;;5.95;3.03;;;;;;;11.53;95.15;96144.06;5033125;28;24439;-74
2022/05/15 00:09:31;;;;;;;4.70;2.60;;;;;;;11.47;96.48;96130.63;5032835;28;24444;-75
2022/05/15 00:11:59;;;;;;;3.45;2.70;;;;;;;11.38;97.79;96132.88;5032753;28;24436;-75
2022/05/15 00:14:25;;;;;;;4.72;2.95;;;;;;;11.40;97.30;96130.16;5033033;28;24439;-75
2022/05/15 00:16:52;;;;;;;5.38;2.67;;;;;;;11.46;96.42;96132.41;5033148;28;24436;-74
2022/05/15 00:19:19;;;;;;;5.32;3.10;;;;;;;11.47;96.55;96133.22;5032888;28;25016;-74
2022/05/15 00:21:45;;;;;;;4.27;2.60;;;;;;;11.40;95.91;96127.56;5032443;28;24455;-74
2022/05/15 00:24:11;;;;;;;3.60;2.38;;;;;;;11.34;97.12;96127.94;5032935;28;24447;-75
2022/05/15 00:26:38;;;;;;;3.05;2.30;;;;;;;11.32;96.62;96128.03;5033174;28;24853;-74
2022/05/15 00:29:06;;;;;;;3.20;2.30;;;;;;;11.34;96.96;96136.53;5033027;28;24439;-74
2022/05/15 00:31:32;;;;;;;3.35;2.30;;;;;;;11.28;97.58;96131.75;5032595;28;24436;-75
2022/05/15 00:33:59;;;;;;;6.15;2.63;;;;;;;11.34;96.91;96131.34;5032543;28;24432;-74
2022/05/15 00:36:26;;;;;;;4.60;2.55;;;;;;;11.45;95.71;96132.47;5032598;28;24443;-75
2022/05/15 00:38:52;;;;;;;3.40;2.57;;;;;;;11.27;98.05;96134.41;5032710;28;24582;-75
2022/05/15 00:41:19;;;;;;;2.95;2.13;;;;;;;11.22;98.13;96126.09;5032698;28;24468;-74
2022/05/15 00:43:48;;;;;;;2.70;2.17;;;;;;;11.14;97.80;96129.13;5032429;28;24432;-74
2022/05/15 00:46:19;;;;;;;3.90;2.15;;;;;;;11.18;97.69;96120.25;5032522;28;24482;-74
2022/05/15 00:48:46;;;;;;;4.05;2.28;;;;;;;11.13;97.94;96117.09;5032306;28;24434;-75
2022/05/15 00:51:18;;;;;;;5.05;2.65;;;;;;;11.11;97.01;96111.16;5032462;28;24486;-74
2022/05/15 00:53:48;;;;;;;4.40;2.73;;;;;;;10.99;99.40;96114.50;5038810;28;24458;-74
2022/05/15 00:56:16;;;;;;;4.82;2.72;;;;;;;10.83;100.00;96112.81;5032551;28;20779;-75
2022/05/15 00:58:49;;;;;;;4.63;2.40;;;;;;;10.80;100.00;96112.97;5032030;28;24435;-74
2022/05/15 01:01:18;;;;;;;3.67;2.47;;;;;;;10.84;100.00;96114.47;5031893;28;24459;-74
2022/05/15 01:03:46;;;;;;;3.80;2.60;;;;;;;10.86;100.00;96110.03;5031936;28;24988;-74
2022/05/15 01:06:13;;;;;;;12.90;2.55;;;;;;;10.83;100.00;96110.22;5031921;28;24436;-75
2022/05/15 01:08:39;;;;;;;5.65;2.50;;;;;;;10.90;100.00;96121.88;5016617;28;24429;-75
2022/05/15 01:11:10;;;;;;;2.92;2.17;;;;;;;10.84;100.00;96109.28;5015481;28;24833;-74
2022/05/15 01:13:39;;;;;;;5.27;2.30;;;;;;;10.84;99.83;96111.03;5031885;28;24928;-75
2022/05/15 01:16:06;;;;;;;3.90;2.30;;;;;;;10.87;99.82;96113.47;5031640;28;24813;-75
2022/05/15 01:18:38;;;;;;;2.80;2.00;;;;;;;11.00;97.48;96111.78;5032148;28;24443;-75
2022/05/15 01:21:21;;;;;;;4.60;2.63;;;;;;;10.81;99.05;96106.84;5031541;28;24456;-74
2022/05/15 01:23:47;;;;;;;3.05;2.22;;;;;;;10.75;99.69;96109.78;5031819;28;24440;-74
2022/05/15 01:26:14;;;;;;;5.10;2.55;;;;;;;10.71;99.70;96115.25;5031813;28;24432;-73
2022/05/15 01:28:42;;;;;;;2.75;2.03;;;;;;;10.75;98.92;96108.97;5031808;28;24447;-74
2022/05/15 01:31:09;;;;;;;5.75;2.63;;;;;;;10.71;99.83;96115.25;5031471;28;24523;-74
2022/05/15 01:33:35;;;;;;;3.03;2.22;;;;;;;10.69;99.44;96115.34;5031625;28;24486;-75
2022/05/15 01:36:02;;;;;;;5.03;2.40;;;;;;;10.71;99.12;96107.47;5031708;28;24810;-75
2022/05/15 01:38:29;;;;;;;7.13;2.47;;;;;;;10.58;100.00;96115.13;5029977;28;24444;-74
2022/05/15 01:40:56;;;;;;;5.15;2.40;;;;;;;10.45;100.00;96114.16;5031070;28;24462;-75
2022/05/15 01:43:22;;;;;;;6.75;2.47;;;;;;;10.54;99.70;96118.81;5031134;28;24463;-74
2022/05/15 01:45:49;;;;;;;6.70;2.67;;;;;;;10.31;100.00;96128.72;5031594;28;24501;-75
2022/05/15 01:48:15;;;;;;;3.70;2.53;;;;;;;10.24;100.00;96119.59;5031459;28;24798;-75
2022/05/15 01:50:42;;;;;;;4.65;2.50;;;;;;;10.22;100.00;96118.00;5031205;28;24505;-75
2022/05/15 01:53:09;;;;;;;3.03;2.20;;;;;;;10.18;100.00;96113.00;5031012;28;24478;-73
2022/05/15 01:55:37;;;;;;;3.55;2.20;;;;;;;10.17;100.00;96113.09;5031111;28;24432;-74
2022/05/15 01:58:03;;;;;;;3.17;2.50;;;;;;;10.16;100.00;96114.84;5031364;28;24498;-75
2022/05/15 02:00:30;;;;;;;4.33;2.40;;;;;;;10.21;100.00;96112.00;5030965;28;24436;-74
2022/05/15 02:02:56;;;;;;;5.70;2.45;;;;;;;10.24;100.00;96117.00;5030877;28;24435;-75
2022/05/15 02:05:23;;;;;;;3.50;2.25;;;;;;;10.26;100.00;96124.72;5031076;28;24432;-74
2022/05/15 02:07:49;;;;;;;4.38;2.60;;;;;;;10.22;100.00;96120.59;5031068;28;24440;-74
2022/05/15 02:10:17;;;;;;;6.57;2.58;;;;;;;10.12;100.00;96117.66;5030816;28;24509;-75
2022/05/15 02:12:45;;;;;;;4.18;2.70;;;;;;;10.08;100.00;96118.75;5030145;28;24443;-74
2022/05/15 02:15:12;;;;;;;4.63;2.75;;;;;;;10.05;100.00;96113.75;5030778;28;24997;-74
2022/05/15 02:17:39;;;;;;;6.28;3.10;;;;;;;9.94;100.00;96112.63;5031021;28;24438;-75
2022/05/15 02:20:10;;;;;;;5.03;2.90;;;;;;;9.81;100.00;96106.44;5030616;28;24519;-74
2022/05/15 02:22:37;;;;;;;5.65;2.67;;;;;;;9.83;100.00;96102.00;5031369;28;20816;-73
2022/05/15 02:25:04;;;;;;;4.28;3.03;;;;;;;9.88;100.00;96102.59;5031047;28;24821;-73
2022/05/15 02:27:31;;;;;;;5.75;3.25;;;;;;;9.97;100.00;96108.16;5031132;28;24485;-73
2022/05/15 02:29:58;;;;;;;3.03;2.47;;;;;;;9.94;100.00;96101.44;5031281;28;24424;-73
2022/05/15 02:32:25;;;;;;;4.65;3.20;;;;;;;9.96;100.00;96107.34;5030768;28;24443;-73
2022/05/15 02:34:51;;;;;;;13.43;3.10;;;;;;;10.02;100.00;96098.41;5030908;28;24427;-73
2022/05/15 02:37:18;;;;;;;3.45;2.53;;;;;;;10.00;100.00;96095.91;5030706;28;24439;-73
2022/05/15 02:39:45;;;;;;;3.45;2.72;;;;;;;9.91;100.00;96102.44;5030821;28;24436;-73
2022/05/15 02:42:11;;;;;;;5.63;3.10;;;;;;;9.92;100.00;96100.66;5030793;28;24487;-73
2022/05/15 02:44:38;;;;;;;4.07;3.08;;;;;;;9.96;100.00;96099.59;5010808;28;24475;-73
2022/05/15 02:47:06;;;;;;;4.60;3.10;;;;;;;9.90;100.00;96095.59;5011058;28;24424;-73
2022/05/15 02:52:28;;;;;;;4.68;3.00;;;;;;;9.76;100.00;96095.50;4992122;28;20806;-73
2022/05/15 02:54:55;;;;;;;5.13;2.95;;;;;;;9.82;100.00;96094.31;5020059;28;24833;-74
2022/05/15 02:57:21;;;;;;;4.43;2.67;;;;;;;9.83;100.00;96091.66;5030451;28;24443;-73
2022/05/15 02:59:48;;;;;;;6.05;2.97;;;;;;;9.85;100.00;96092.41;5030456;28;25087;-73
2022/05/15 03:02:16;;;;;;;3.55;2.75;;;;;;;9.89;100.00;96098.25;5030545;28;24467;-74
2022/05/15 03:04:42;;;;;;;4.38;3.13;;;;;;;9.78;100.00;96090.22;5030573;28;20822;-73
2022/05/15 03:07:09;;;;;;;4.40;3.03;;;;;;;9.76;100.00;96090.34;5030138;28;24988;-73
2022/05/15 03:09:35;;;;;;;5.43;3.20;;;;;;;9.69;100.00;96089.81;5030390;28;24446;-73
2022/05/15 03:12:02;;;;;;;4.95;3.15;;;;;;;9.73;100.00;96095.66;5030535;28;20785;-73
2022/05/15 03:14:28;;;;;;;4.45;2.92;;;;;;;9.62;100.00;96091.06;5030540;28;24428;-73
2022/05/15 03:16:55;;;;;;;3.97;2.58;;;;;;;9.57;100.00;96089.66;5030470;28;24864;-73
2022/05/15 03:19:22;;;;;;;3.50;2.50;;;;;;;9.63;100.00;96095.31;5030447;28;24493;-73
2022/05/15 03:21:49;;;;;;;4.93;3.03;;;;;;;9.58;100.00;96096.50;5030117;28;24459;-74
2022/05/15 03:24:16;;;;;;;4.60;2.75;;;;;;;9.45;100.00;96083.38;5034044;28;20770;-73
2022/05/15 03:26:44;;;;;;;7.03;2.33;;;;;;;9.47;100.00;96096.22;5034086;28;24949;-73
2022/05/15 03:29:13;;;;;;;3.93;2.93;;;;;;;9.47;100.00;96093.66;5034037;28;21303;-73
2022/05/15 03:31:40;;;;;;;5.00;3.00;;;;;;;9.36;100.00;96092.47;5033578;28;24505;-74
2022/05/15 03:34:09;;;;;;;5.63;3.08;;;;;;;9.33;100.00;96097.78;5033727;28;20806;-73
2022/05/15 03:36:38;;;;;;;3.72;2.97;;;;;;;9.20;100.00;96092.44;5033284;28;20771;-74
2022/05/15 03:39:07;;;;;;;8.98;2.90;;;;;;;9.16;100.00;96096.09;5032907;28;20865;-73
2022/05/15 03:41:34;;;;;;;3.10;2.40;;;;;;;9.20;100.00;96105.34;5032624;28;20810;-74
2022/05/15 03:44:00;;;;;;;8.70;2.60;;;;;;;9.26;100.00;96098.19;5033852;28;24419;-73
2022/05/15 03:46:27;;;;;;;4.43;2.78;;;;;;;9.31;100.00;96107.38;5034179;28;20783;-73
2022/05/15 03:48:54;;;;;;;4.07;2.85;;;;;;;9.37;100.00;96103.63;5033851;28;24571;-73
2022/05/15 03:51:21;;;;;;;8.35;2.90;;;;;;;9.49;100.00;96102.97;5028240;28;20823;-73
2022/05/15 03:53:50;;;;;;;4.43;3.03;;;;;;;9.54;100.00;96101.00;5027754;28;24529;-73
2022/05/15 03:56:16;;;;;;;4.10;2.87;;;;;;;9.33;100.00;96107.28;5013830;28;21308;-73
2022/05/15 03:58:43;;;;;;;3.90;2.80;;;;;;;9.13;100.00;96108.34;5027160;28;24440;-73
2022/05/15 04:01:10;;;;;;;4.93;3.28;;;;;;;9.17;100.00;96107.25;5033744;28;21202;-74
2022/05/15 04:03:37;;;;;;;8.17;2.87;;;;;;;9.26;100.00;96106.78;5033568;28;24423;-73
2022/05/15 04:06:03;;;;;;;3.28;2.38;;;;;;;9.27;100.00;96115.34;5033930;28;20780;-73
2022/05/15 04:08:30;;;;;;;3.88;2.70;;;;;;;9.31;100.00;96109.16;5033522;28;21294;-73
2022/05/15 04:10:58;;;;;;;4.17;2.63;;;;;;;9.42;100.00;96110.25;5033240;28;24472;-74
2022/05/15 04:13:24;;;;;;;4.05;2.90;;;;;;;9.36;100.00;96104.56;5033558;28;20852;-73
2022/05/15 04:15:51;;;;;;;5.20;2.97;;;;;;;9.30;100.00;96100.53;5033346;28;24447;-74
2022/05/15 04:18:17;;;;;;;3.22;2.45;;;;;;;9.33;100.00;96100.38;5033392;28;24443;-73
2022/05/15 04:20:44;;;;;;;5.47;3.00;;;;;;;9.36;100.00;96097.63;5033149;28;24432;-73
2022/05/15 04:23:10;;;;;;;4.20;2.90;;;;;;;9.41;100.00;96099.97;5033286;28;20891;-73
2022/05/15 04:25:37;;;;;;;4.82;2.50;;;;;;;9.37;100.00;96101.03;5033226;28;20757;-73
2022/05/15 04:28:05;;;;;;;4.68;2.50;;;;;;;9.35;100.00;96101.13;5033089;28;24474;-73
2022/05/15 04:30:31;;;;;;;5.75;3.15;;;;;;;9.43;100.00;96103.31;5033165;28;24852;-74
2022/05/15 04:32:57;;;;;;;4.38;2.53;;;;;;;9.61;100.00;96101.50;5032871;28;24930;-73
2022/05/15 04:35:24;;;;;;;3.90;2.80;;;;;;;9.81;100.00;96103.84;5032436;28;24560;-73
2022/05/15 04:37:52;;;;;;;3.38;2.30;;;;;;;9.82;100.00;96100.31;5033067;28;24541;-73
2022/05/15 04:40:19;;;;;;;4.43;2.63;;;;;;;9.72;100.00;96098.34;5033040;28;20814;-73
2022/05/15 04:42:45;;;;;;;3.70;2.50;;;;;;;9.73;100.00;96100.84;5032770;28;20831;-76
2022/05/15 04:45:13;;;;;;;3.35;2.55;;;;;;;9.82;100.00;96100.31;5032998;28;24430;-73
2022/05/15 04:47:39;;;;;;;5.60;2.95;;;;;;;10.01;100.00;96112.25;5033123;28;20768;-73
2022/05/15 04:50:07;;;;;;;3.45;2.78;;;;;;;10.14;100.00;96115.84;5032956;28;21110;-73
2022/05/15 04:52:34;;;;;;;4.22;2.90;;;;;;;10.24;100.00;96114.44;5039040;28;20808;-73
2022/05/15 04:55:00;;;;;;;2.95;2.65;;;;;;;10.25;100.00;96112.66;5026436;28;24494;-73
2022/05/15 04:57:27;;;;;;;4.38;2.78;;;;;;;10.38;100.00;96111.06;5025989;28;24804;-73
2022/05/15 04:59:53;;;;;;;3.25;2.50;;;;;;;10.51;100.00;96106.88;5032762;28;24790;-73
2022/05/15 05:02:21;;;;;;;3.78;2.45;;;;;;;10.66;100.00;96112.94;5031726;28;24467;-73
2022/05/15 05:04:47;;;;;;;5.47;2.40;;;;;;;10.71;100.00;96105.72;5032366;28;24431;-73
2022/05/15 05:07:14;;;;;;;4.43;1.92;;;;;;;10.81;100.00;96114.63;5032147;28;24443;-74
2022/05/15 05:09:40;;;;;;;3.63;2.03;;;;;;;10.88;100.00;96115.13;5032704;28;24424;-73
2022/05/15 05:12:08;;;;;;;2.10;1.83;;;;;;;10.89;100.00;96114.19;5032406;28;24502;-74
2022/05/15 05:14:35;;;;;;;2.60;2.20;;;;;;;10.94;100.00;96117.34;5032618;28;20764;-73
2022/05/15 05:17:01;;;;;;;2.85;2.08;;;;;;;11.14;100.00;96114.41;5017131;28;24432;-73
2022/05/15 05:19:29;;;;;;;5.63;2.00;;;;;;;11.30;100.00;96116.06;5032163;28;24501;-73
2022/05/15 05:21:55;;;;;;;3.88;2.22;;;;;;;11.60;100.00;96116.81;5031751;28;25021;-74
2022/05/15 05:24:22;;;;;;;3.30;2.40;;;;;;;11.88;100.00;96119.50;5031990;28;24559;-72
2022/05/15 05:26:48;;;;;;;2.85;2.47;;;;;;;11.79;100.00;96123.47;5032168;28;24477;-73
2022/05/15 05:29:15;;;;;;;3.03;2.17;;;;;;;11.82;100.00;96118.91;5032329;28;24411;-73
2022/05/15 05:31:41;;;;;;;3.60;2.42;;;;;;;12.12;100.00;96120.53;5032085;28;24423;-72
2022/05/15 05:34:08;;;;;;;3.90;2.50;;;;;;;12.30;100.00;96119.38;5031191;28;24989;-72
2022/05/15 05:36:36;;;;;;;3.73;2.47;;;;;;;12.39;100.00;96120.56;5015099;28;24531;-73
2022/05/15 05:39:03;;;;;;;3.60;2.08;;;;;;;12.34;100.00;96117.41;5012256;28;24428;-73
2022/05/15 05:41:29;;;;;;;2.90;2.33;;;;;;;12.47;100.00;96120.91;5017242;28;24984;-73
2022/05/15 05:43:56;;;;;;;3.78;2.40;;;;;;;12.54;100.00;96114.38;5031562;28;24431;-73
2022/05/15 05:46:22;;;;;;;3.22;2.38;;;;;;;12.61;100.00;96114.81;5024777;28;24842;-73
2022/05/15 05:48:49;;;;;;;3.75;2.28;;;;;;;12.77;100.00;96115.47;5012028;28;24420;-72
2022/05/15 05:51:16;;;;;;;5.40;2.20;;;;;;;12.79;98.40;96115.34;5013359;28;24487;-73
2022/05/15 05:53:44;;;;;;;2.75;1.80;;;;;;;12.60;87.08;96113.97;5030901;28;24539;-72
2022/05/15 05:56:11;;;;;;;3.03;1.90;;;;;;;12.63;84.38;96119.91;5031138;28;24436;-72
2022/05/15 05:58:38;;;;;;;7.88;1.90;;;;;;;12.84;85.28;96121.09;5031636;28;24435;-74
2022/05/15 06:01:05;;;;;;;3.33;1.90;;;;;;;12.98;83.79;96125.38;5031138;28;24467;-72
2022/05/15 06:06:16;;;;;;;4.27;2.27;;;;;;;13.14;81.46;96112.19;5031072;28;24443;-72
2022/05/15 06:08:44;;;;;;;3.47;2.15;;;;;;;13.13;81.71;96119.16;5031046;28;24490;-72
2022/05/15 06:11:11;;;;;;;2.45;1.92;;;;;;;12.96;81.36;96124.66;5012875;28;24490;-71
2022/05/15 06:13:39;;;;;;;4.20;2.07;;;;;;;12.82;81.77;96122.94;5014710;28;24498;-72
2022/05/15 06:16:06;;;;;;;3.20;2.30;;;;;;;12.94;81.51;96111.75;5030622;28;24467;-72
2022/05/15 06:18:32;;;;;;;5.65;1.98;;;;;;;13.26;81.70;96112.19;5031267;28;24419;-72
2022/05/15 06:20:59;;;;;;;10.80;2.20;;;;;;;13.27;76.03;96113.03;5030917;28;24436;-72
2022/05/15 06:23:25;;;;;;;2.78;1.70;;;;;;;13.51;76.84;96116.56;5031017;28;24443;-72
2022/05/15 06:25:53;;;;;;;2.65;1.95;;;;;;;13.48;77.10;96111.56;5031273;28;24427;-72
2022/05/15 06:28:20;;;;;;;2.22;1.52;;;;;;;13.64;76.97;96116.53;5031179;28;24806;-73
2022/05/15 06:30:46;;;;;;;4.32;2.22;;;;;;;13.98;77.74;96111.59;5030908;28;24531;-73
2022/05/15 06:33:13;;;;;;;3.80;1.80;;;;;;;14.18;73.73;96116.19;5030342;28;24466;-74
2022/05/15 06:35:39;;;;;;;4.28;1.98;;;;;;;14.20;74.67;96116.09;5025254;28;24439;-74
2022/05/15 06:38:07;;;;;;;5.50;2.20;;;;;;;14.35;74.48;96114.16;5033034;28;24938;-74
2022/05/15 06:40:34;;;;;;;3.67;2.00;;;;;;;14.58;74.74;96115.97;5032366;28;24486;-74
2022/05/15 06:43:02;;;;;;;4.68;1.77;;;;;;;14.76;74.27;96111.19;5035163;28;24452;-74
2022/05/15 06:45:29;;;;;;;2.88;1.73;;;;;;;15.14;74.01;96112.69;5030234;28;25069;-73
2022/05/15 06:47:56;;;;;;;3.87;1.80;;;;;;;15.58;75.61;96109.28;5029899;28;25090;-74
2022/05/15 06:50:23;;;;;;;4.25;2.10;;;;;;;15.93;67.19;96106.56;5030500;28;24852;-75
2022/05/15 06:52:50;;;;;;;3.38;1.70;;;;;;;16.31;64.68;96114.91;5030126;28;24436;-75
2022/05/15 06:55:19;;;;;;;4.20;1.60;;;;;;;16.66;65.14;96112.06;5029878;28;24439;-74
2022/05/15 06:57:47;;;;;;;2.13;1.52;;;;;;;17.05;66.11;96110.59;5024175;28;24981;-74
2022/05/15 07:00:18;;;;;;;3.03;1.83;;;;;;;17.25;61.73;96100.25;5029699;28;24443;-74
2022/05/15 07:02:46;;;;;;;5.15;1.92;;;;;;;17.33;60.15;96110.91;5030163;28;24463;-72
2022/05/15 07:05:15;;;;;;;3.25;1.70;;;;;;;17.66;60.17;96113.28;5030026;28;24837;-74
2022/05/15 07:07:43;;;;;;;5.05;2.00;;;;;;;17.97;62.50;96108.03;5029715;28;24439;-75
2022/05/15 07:10:10;;;;;;;4.87;2.03;;;;;;;18.32;61.46;96104.13;5029637;28;24447;-73
2022/05/15 07:12:37;;;;;;;4.60;1.88;;;;;;;18.28;58.27;96106.19;5029654;28;24450;-74
2022/05/15 07:15:04;;;;;;;3.07;2.10;;;;;;;17.87;59.12;96108.03;5018844;28;24516;-74
2022/05/15 07:17:32;;;;;;;3.40;2.00;;;;;;;17.67;58.67;96104.47;5029745;28;24879;-75
2022/05/15 07:19:58;;;;;;;4.63;1.92;;;;;;;18.19;57.48;96107.00;5029608;28;24446;-74
2022/05/15 07:22:25;;;;;;;3.22;1.58;;;;;;;18.43;55.90;96100.53;5025801;28;24517;-76
2022/05/15 07:24:51;;;;;;;4.05;1.80;;;;;;;18.78;59.44;96103.50;5030156;28;24443;-74
2022/05/15 07:27:18;;;;;;;5.15;1.90;;;;;;;19.15;61.74;96102.75;5030506;28;24507;-75
2022/05/15 07:29:44;;;;;;;4.47;1.60;;;;;;;19.55;61.68;96099.06;5030206;28;24527;-72
2022/05/15 07:32:12;;;;;;;2.67;1.80;;;;;;;20.04;58.55;96105.78;5029941;28;24436;-74
2022/05/15 07:34:41;;;;;;;6.10;1.95;;;;;;;20.18;56.96;96101.03;5029741;28;24825;-74
2022/05/15 07:37:07;;;;;;;3.47;1.58;;;;;;;20.28;58.94;96102.63;5029617;28;24440;-74
2022/05/15 07:39:34;;;;;;;2.72;1.80;;;;;;;20.41;58.79;96097.00;5030793;28;24778;-74
2022/05/15 07:42:00;;;;;;;3.33;1.77;;;;;;;20.34;51.53;96100.38;5029619;28;25035;-74
2022/05/15 07:44:27;;;;;;;3.80;1.60;;;;;;;20.62;52.19;96095.94;5017120;28;24425;-73
2022/05/15 07:46:53;;;;;;;6.17;1.70;;;;;;;20.54;54.04;96100.13;5019910;28;24853;-69
2022/05/15 07:49:20;;;;;;;3.72;1.75;;;;;;;20.61;52.03;96095.06;5018607;28;24447;-71
2022/05/15 07:51:47;;;;;;;6.55;1.50;;;;;;;21.10;52.92;96092.88;5021154;28;24540;-73
2022/05/15 07:54:15;;;;;;;2.85;1.45;;;;;;;21.19;49.99;96088.47;5022116;28;24435;-73
2022/05/15 07:56:42;;;;;;;3.17;1.52;;;;;;;21.15;48.98;96085.31;5027666;28;24431;-72
2022/05/15 07:59:11;;;;;;;4.05;1.60;;;;;;;21.09;51.88;96083.28;5029178;28;24446;-73
2022/05/15 08:01:38;;;;;;;3.50;1.50;;;;;;;20.95;52.62;96084.69;5027653;28;24535;-72
2022/05/15 08:04:05;;;;;;;6.18;1.70;;;;;;;21.01;48.23;96086.69;5025832;28;24455;-73
2022/05/15 08:09:17;;;;;;;2.95;1.40;;;;;;;21.27;51.63;96078.00;5030081;28;25000;-72
2022/05/15 08:11:44;;;;;;;2.67;1.50;;;;;;;21.23;50.38;96082.75;5031215;28;24449;-67
2022/05/15 08:14:11;;;;;;;4.03;1.60;;;;;;;21.27;51.36;96086.72;5032319;28;24438;-74
2022/05/15 08:16:38;;;;;;;3.75;1.60;;;;;;;21.48;57.73;96086.41;5032813;28;24439;-73
2022/05/15 08:24:35;;;;;;;3.05;1.50;;;;;;;21.78;53.29;96092.16;5031674;28;24514;-70
2022/05/15 08:27:02;;;;;;;5.93;1.90;;;;;;;21.86;52.82;96092.19;5032314;28;25040;-71
2022/05/15 08:29:28;;;;;;;5.47;1.55;;;;;;;21.89;50.59;96094.50;5032060;28;24969;-70
2022/05/15 08:31:55;;;;;;;5.60;1.70;;;;;;;22.02;53.03;96086.13;5032443;28;24515;-71
2022/05/15 08:34:21;;;;;;;3.50;1.60;;;;;;;22.02;46.72;96094.06;5031555;28;25072;-71
2022/05/15 08:36:49;;;;;;;4.05;1.80;;;;;;;21.93;47.67;96087.09;5020996;28;24436;-70
2022/05/15 08:39:16;;;;;;;3.17;1.53;;;;;;;22.17;49.21;96083.75;5032172;28;24529;-73
2022/05/15 08:41:49;;;;;;;7.27;1.63;;;;;;;22.12;48.32;96089.47;5026563;28;24432;-70
2022/05/15 08:44:19;;;;;;;8.02;1.60;;;;;;;22.42;56.23;96082.81;5024094;28;24814;-71
2022/05/15 08:47:01;;;;;;;5.18;1.80;;;;;;;22.10;48.88;96086.19;5028672;28;24463;-71
2022/05/15 08:49:31;;;;;;;3.63;1.77;;;;;;;22.19;49.00;96087.88;5031697;28;25003;-71
2022/05/15 08:52:03;;;;;;;3.35;1.58;;;;;;;22.46;52.06;96088.59;5030893;28;24804;-71
2022/05/15 08:54:30;;;;;;;5.25;2.03;;;;;;;22.35;48.53;96083.63;5031641;28;24440;-70
2022/05/15 08:56:58;;;;;;;5.07;1.77;;;;;;;22.47;45.16;96082.31;5031836;28;24447;-74
2022/05/15 08:59:27;;;;;;;3.30;1.52;;;;;;;22.64;51.84;96094.56;5028919;28;24444;-70
2022/05/15 09:01:57;;;;;;;4.15;1.60;;;;;;;22.75;49.91;96089.97;5032095;28;24985;-71
2022/05/15 09:04:25;;;;;;;2.88;1.55;;;;;;;22.93;51.65;96088.03;5030419;28;24452;-71
2022/05/15 09:07:04;;;;;;;6.20;2.10;;;;;;;22.96;47.47;96085.06;5031422;28;24798;-70
2022/05/15 09:09:38;;;;;;;3.75;1.75;;;;;;;22.93;48.24;96086.22;5032051;28;24490;-71
2022/05/15 09:12:15;;;;;;;3.70;1.70;;;;;;;22.87;47.78;96089.47;5031872;28;25070;-70
2022/05/15 09:14:59;;;;;;;7.70;1.93;;;;;;;23.06;50.17;96082.25;5031218;28;25007;-71
2022/05/15 09:17:32;;;;;;;5.25;2.00;;;;;;;23.05;47.09;96085.88;5018983;28;24471;-70
2022/05/15 09:20:03;;;;;;;2.95;1.55;;;;;;;23.14;48.58;96084.91;5030872;28;24432;-71
2022/05/15 09:22:36;;;;;;;3.67;1.60;;;;;;;23.27;52.69;96085.19;5048841;28;24438;-70
2022/05/15 09:25:08;;;;;;;6.20;1.90;;;;;;;23.21;49.62;96083.22;5046278;28;24427;-71
2022/05/15 09:27:36;;;;;;;3.38;1.73;;;;;;;23.11;47.50;96079.94;5031612;28;24502;-71
2022/05/15 09:30:11;;;;;;;4.72;1.70;;;;;;;22.97;52.93;96086.72;5031362;28;24542;-71
2022/05/15 09:32:39;;;;;;;5.07;1.80;;;;;;;23.21;48.23;96069.19;5031717;28;24490;-71
2022/05/15 09:35:17;;;;;;;3.28;1.70;;;;;;;23.24;49.98;96077.59;5030663;28;24582;-70
2022/05/15 09:40:40;;;;;;;4.90;1.93;;;;;;;23.74;44.78;96081.81;5016025;28;24769;-70
2022/05/15 09:43:32;;;;;;;5.88;1.73;;;;;;;24.13;46.63;96079.16;5015664;28;24467;-73
2022/05/15 09:45:59;;;;;;;3.50;1.60;;;;;;;24.04;46.40;96082.03;5031211;28;24432;-72
2022/05/15 09:48:37;;;;;;;5.57;1.70;;;;;;;24.13;44.79;96075.69;5031168;28;24436;-73
2022/05/15 09:51:08;;;;;;;4.35;2.05;;;;;;;24.21;44.13;96072.19;5030776;28;24439;-71
2022/05/15 09:53:41;;;;;;;3.45;1.50;;;;;;;24.20;45.57;96076.66;5042676;28;24829;-70
2022/05/15 09:56:10;;;;;;;4.50;1.73;;;;;;;24.32;44.04;96075.25;5042418;28;25352;-71
2022/05/15 09:58:40;;;;;;;4.80;2.33;;;;;;;24.24;41.13;96071.84;5031293;28;24539;-71
2022/05/15 10:01:16;;;;;;;7.90;3.47;;;;;;;24.21;44.62;96066.91;5014676;28;24434;-70
2022/05/15 10:03:42;;;;;;;5.43;1.90;;;;;;;24.11;46.23;96067.94;5030362;28;24467;-72
2022/05/15 10:06:10;;;;;;;4.47;2.45;;;;;;;23.86;46.56;96059.28;5029174;28;24436;-72
2022/05/15 10:08:37;;;;;;;3.55;1.70;;;;;;;24.07;47.98;96063.19;5037584;28;24989;-72
2022/05/15 10:11:06;;;;;;;7.72;1.90;;;;;;;24.17;46.84;96055.84;5029950;28;24431;-72
2022/05/15 10:13:38;;;;;;;3.63;2.00;;;;;;;24.32;49.91;96056.72;5023283;28;24482;-71
2022/05/15 10:16:14;;;;;;;5.40;1.80;;;;;;;24.33;47.21;96049.66;5031163;28;24865;-71
2022/05/15 10:18:48;;;;;;;3.80;1.70;;;;;;;24.48;46.21;96060.34;5029546;28;24977;-71
2022/05/15 10:21:15;;;;;;;6.00;1.50;;;;;;;24.43;45.94;96054.72;5038108;28;24490;-71
2022/05/15 10:23:48;;;;;;;3.38;1.65;;;;;;;24.47;48.71;96056.03;5029816;28;24467;-72
2022/05/15 10:26:20;;;;;;;4.15;1.73;;;;;;;24.24;46.25;96050.69;5030212;28;24476;-71
2022/05/15 10:28:53;;;;;;;2.90;1.80;;;;;;;24.33;45.25;96044.34;5030850;28;24482;-72
2022/05/15 10:31:26;;;;;;;2.92;1.58;;;;;;;24.58;47.94;96042.38;5029706;28;24436;-72
2022/05/15 10:33:56;;;;;;;8.57;1.77;;;;;;;24.60;44.93;96038.56;5017937;28;24431;-72
2022/05/15 10:36:47;;;;;;;4.83;1.70;;;;;;;24.62;50.16;96041.00;5029862;28;24438;-71
2022/05/15 10:39:24;;;;;;;6.10;1.73;;;;;;;24.48;41.87;96037.31;5026061;28;24976;-71
2022/05/15 10:42:02;;;;;;;2.80;1.83;;;;;;;24.45;48.20;96027.09;5028624;28;25023;-73
2022/05/15 10:44:40;;;;;;;4.30;1.90;;;;;;;24.65;45.29;96027.44;5029629;28;25071;-72
2022/05/15 10:47:15;;;;;;;4.05;1.60;;;;;;;24.37;41.69;96019.16;5026950;28;24435;-72
2022/05/15 10:50:01;;;;;;;4.75;1.90;;;;;;;24.66;47.31;96017.66;5030390;28;24442;-72
2022/05/15 10:52:47;;;;;;;3.28;1.83;;;;;;;24.78;44.38;96014.41;5043087;28;24502;-72
2022/05/15 10:58:20;;;;;;;4.38;1.95;;;;;;;24.67;41.90;95998.94;5009436;28;24444;-72
2022/05/15 11:00:56;;;;;;;7.78;1.90;;;;;;;24.55;42.87;96003.84;5029967;28;24486;-71
2022/05/15 11:03:38;;;;;;;3.90;1.90;;;;;;;24.75;48.13;96000.72;5029625;28;24462;-71
2022/05/15 11:06:46;;;;;;;10.57;2.33;;;;;;;24.50;44.35;96000.06;5029681;28;25034;-71
2022/05/15 11:09:17;;;;;;;5.40;1.90;;;;;;;24.48;44.81;96000.25;5029234;28;25018;-71
2022/05/15 11:12:00;;;;;;;5.93;1.90;;;;;;;24.45;43.85;95997.97;5029882;28;24439;-70
2022/05/15 11:14:35;;;;;;;4.07;2.00;;;;;;;24.47;43.92;95995.94;5029647;28;24443;-71
2022/05/15 11:17:11;;;;;;;5.55;2.13;;;;;;;24.53;47.20;96000.53;5029887;28;24435;-71
2022/05/15 11:19:41;;;;;;;2.95;1.80;;;;;;;24.61;47.98;95997.00;5030095;28;24439;-70
2022/05/15 11:22:25;;;;;;;5.05;2.05;;;;;;;24.69;42.38;95991.63;5029199;28;24514;-70
2022/05/15 11:24:57;;;;;;;3.92;1.98;;;;;;;24.75;45.29;95995.41;5029270;28;24498;-71
2022/05/15 11:27:29;;;;;;;3.90;1.95;;;;;;;24.68;46.53;95992.66;5029718;28;24463;-71
2022/05/15 11:30:00;;;;;;;2.78;1.67;;;;;;;24.42;43.68;95989.56;5029427;28;24494;-71
2022/05/15 11:32:38;;;;;;;5.68;2.03;;;;;;;24.73;43.42;95984.16;5036639;28;24447;-72
2022/05/15 11:35:24;;;;;;;4.65;2.17;;;;;;;24.99;46.58;95987.25;5013544;28;24435;-71
2022/05/15 11:38:01;;;;;;;6.68;2.00;;;;;;;24.93;42.24;95980.00;5037122;28;24435;-70
2022/05/15 11:40:34;;;;;;;4.03;1.75;;;;;;;24.60;43.73;95982.94;5029952;28;25028;-71
2022/05/15 11:43:34;;;;;;;5.45;2.08;;;;;;;24.52;42.17;95985.66;5024848;28;24544;-71
2022/05/15 11:46:03;;;;;;;6.05;1.80;;;;;;;24.17;41.04;95979.09;5030530;28;24539;-71
2022/05/15 11:48:32;;;;;;;5.05;1.88;;;;;;;24.22;44.30;95968.81;5027176;28;25003;-70
2022/05/15 11:51:04;;;;;;;3.75;1.95;;;;;;;24.54;40.53;95978.34;5032832;28;24489;-71
2022/05/15 11:53:32;;;;;;;3.55;1.67;;;;;;;24.48;39.38;95973.78;5031925;28;24474;-71
2022/05/15 11:56:20;;;;;;;7.68;2.65;;;;;;;24.20;43.03;95970.00;5027258;28;24439;-71
2022/05/15 11:58:54;;;;;;;3.03;1.80;;;;;;;24.50;45.58;95968.31;5027684;28;25092;-71
2022/05/15 12:01:46;;;;;;;4.38;1.90;;;;;;;24.55;46.02;95955.38;5026655;28;24494;-71